sensor_id;sensor_type;location;lat;lon;timestamp;pressure;altitude;pressure_sealevel;temperature;humidity
64521;BME280;50896;46.714;17.322;2023-06-19T00:01:35;100316.16;;;20.22;89.76
64521;BME280;50896;46.714;17.322;2023-06-19T00:04:09;100307.09;;;20.17;90.16
64521;BME280;50896;46.714;17.322;2023-06-19T00:06:41;100309.41;;;20.13;90.32
64521;BME280;50896;46.714;17.322;2023-06-19T00:09:08;100314.00;;;20.12;90.78
64521;BME280;50896;46.714;17.322;2023-06-19T00:11:45;100304.31;;;20.05;91.26
64521;BME280;50896;46.714;17.322;2023-06-19T00:14:15;100305.00;;;20.00;90.96
64521;BME280;50896;46.714;17.322;2023-06-19T00:16:50;100307.25;;;20.03;91.04
64521;BME280;50896;46.714;17.322;2023-06-19T00:19:21;100311.22;;;20.01;91.18
64521;BME280;50896;46.714;17.322;2023-06-19T00:21:52;100299.47;;;19.95;90.95
64521;BME280;50896;46.714;17.322;2023-06-19T00:24:24;100297.38;;;19.97;90.88
64521;BME280;50896;46.714;17.322;2023-06-19T00:26:53;100292.28;;;19.89;91.06
64521;BME280;50896;46.714;17.322;2023-06-19T00:29:42;100294.91;;;19.95;90.57
64521;BME280;50896;46.714;17.322;2023-06-19T00:32:10;100296.97;;;19.82;90.83
64521;BME280;50896;46.714;17.322;2023-06-19T00:34:41;100298.72;;;19.69;91.76
64521;BME280;50896;46.714;17.322;2023-06-19T00:37:11;100301.94;;;19.59;92.60
64521;BME280;50896;46.714;17.322;2023-06-19T00:39:41;100295.13;;;19.57;92.67
64521;BME280;50896;46.714;17.322;2023-06-19T00:42:10;100299.38;;;19.46;93.32
64521;BME280;50896;46.714;17.322;2023-06-19T00:44:40;100295.03;;;19.45;93.24
64521;BME280;50896;46.714;17.322;2023-06-19T00:47:15;100291.75;;;19.43;93.31
64521;BME280;50896;46.714;17.322;2023-06-19T00:49:48;100285.38;;;19.37;93.53
64521;BME280;50896;46.714;17.322;2023-06-19T00:52:18;100291.81;;;19.36;93.87
64521;BME280;50896;46.714;17.322;2023-06-19T00:54:54;100287.91;;;19.32;94.24
64521;BME280;50896;46.714;17.322;2023-06-19T00:57:28;100288.38;;;19.29;94.24
64521;BME280;50896;46.714;17.322;2023-06-19T00:59:55;100285.16;;;19.20;95.68
64521;BME280;50896;46.714;17.322;2023-06-19T01:02:26;100279.38;;;19.17;96.40
64521;BME280;50896;46.714;17.322;2023-06-19T01:05:02;100280.28;;;19.10;96.80
64521;BME280;50896;46.714;17.322;2023-06-19T01:10:22;100279.44;;;19.10;97.58
64521;BME280;50896;46.714;17.322;2023-06-19T01:13:02;100277.19;;;19.07;98.51
64521;BME280;50896;46.714;17.322;2023-06-19T01:15:43;100266.63;;;19.05;98.38
64521;BME280;50896;46.714;17.322;2023-06-19T01:18:12;100280.78;;;19.01;99.64
64521;BME280;50896;46.714;17.322;2023-06-19T01:20:42;100280.38;;;18.97;100.00
64521;BME280;50896;46.714;17.322;2023-06-19T01:23:20;100279.34;;;18.98;100.00
64521;BME280;50896;46.714;17.322;2023-06-19T01:25:51;100282.47;;;18.95;100.00
64521;BME280;50896;46.714;17.322;2023-06-19T01:28:29;100285.00;;;18.90;100.00
64521;BME280;50896;46.714;17.322;2023-06-19T01:31:00;100282.91;;;18.92;100.00
64521;BME280;50896;46.714;17.322;2023-06-19T01:33:32;100280.22;;;18.92;100.00
64521;BME280;50896;46.714;17.322;2023-06-19T01:36:10;100290.75;;;18.93;100.00
64521;BME280;50896;46.714;17.322;2023-06-19T01:38:57;100280.66;;;18.89;100.00
64521;BME280;50896;46.714;17.322;2023-06-19T01:41:32;100288.03;;;18.68;100.00
64521;BME280;50896;46.714;17.322;2023-06-19T01:44:02;100276.19;;;18.76;100.00
64521;BME280;50896;46.714;17.322;2023-06-19T01:46:29;100271.47;;;18.71;100.00
64521;BME280;50896;46.714;17.322;2023-06-19T01:49:09;100273.09;;;18.72;100.00
64521;BME280;50896;46.714;17.322;2023-06-19T01:51:41;100272.28;;;18.72;100.00
64521;BME280;50896;46.714;17.322;2023-06-19T01:54:11;100278.06;;;18.75;100.00
64521;BME280;50896;46.714;17.322;2023-06-19T01:56:38;100269.84;;;18.64;100.00
64521;BME280;50896;46.714;17.322;2023-06-19T01:59:07;100270.78;;;18.51;100.00
64521;BME280;50896;46.714;17.322;2023-06-19T02:01:34;100273.41;;;18.32;100.00
64521;BME280;50896;46.714;17.322;2023-06-19T02:04:02;100271.78;;;18.24;100.00
64521;BME280;50896;46.714;17.322;2023-06-19T02:06:33;100277.59;;;18.21;100.00
64521;BME280;50896;46.714;17.322;2023-06-19T02:09:03;100274.06;;;18.21;100.00
64521;BME280;50896;46.714;17.322;2023-06-19T02:11:37;100269.13;;;18.18;100.00
64521;BME280;50896;46.714;17.322;2023-06-19T02:14:06;100267.31;;;18.12;100.00
64521;BME280;50896;46.714;17.322;2023-06-19T02:16:37;100270.59;;;18.14;100.00
64521;BME280;50896;46.714;17.322;2023-06-19T02:19:10;100265.66;;;18.10;100.00
64521;BME280;50896;46.714;17.322;2023-06-19T02:21:48;100267.16;;;18.00;100.00
64521;BME280;50896;46.714;17.322;2023-06-19T02:24:25;100275.72;;;17.76;100.00
64521;BME280;50896;46.714;17.322;2023-06-19T02:26:57;100275.06;;;17.81;100.00
64521;BME280;50896;46.714;17.322;2023-06-19T02:29:26;100285.88;;;17.68;100.00
64521;BME280;50896;46.714;17.322;2023-06-19T02:32:06;100283.81;;;17.63;100.00
64521;BME280;50896;46.714;17.322;2023-06-19T02:34:41;100277.81;;;17.68;100.00
64521;BME280;50896;46.714;17.322;2023-06-19T02:37:12;100277.19;;;17.66;100.00
64521;BME280;50896;46.714;17.322;2023-06-19T02:39:39;100274.72;;;17.71;100.00
64521;BME280;50896;46.714;17.322;2023-06-19T02:42:17;100271.63;;;17.67;100.00
64521;BME280;50896;46.714;17.322;2023-06-19T02:44:49;100269.56;;;17.63;100.00
64521;BME280;50896;46.714;17.322;2023-06-19T02:47:25;100273.06;;;17.63;100.00
64521;BME280;50896;46.714;17.322;2023-06-19T02:50:00;100276.00;;;17.55;100.00
64521;BME280;50896;46.714;17.322;2023-06-19T02:52:31;100270.63;;;17.55;100.00
64521;BME280;50896;46.714;17.322;2023-06-19T02:54:59;100270.41;;;17.50;100.00
64521;BME280;50896;46.714;17.322;2023-06-19T02:57:28;100273.72;;;17.52;100.00
64521;BME280;50896;46.714;17.322;2023-06-19T03:00:05;100273.50;;;17.60;100.00
64521;BME280;50896;46.714;17.322;2023-06-19T03:02:35;100263.56;;;17.60;100.00
64521;BME280;50896;46.714;17.322;2023-06-19T03:05:23;100268.97;;;17.54;100.00
64521;BME280;50896;46.714;17.322;2023-06-19T03:07:55;100269.81;;;17.48;100.00
64521;BME280;50896;46.714;17.322;2023-06-19T03:10:25;100273.75;;;17.45;100.00
64521;BME280;50896;46.714;17.322;2023-06-19T03:12:55;100278.47;;;17.50;100.00
64521;BME280;50896;46.714;17.322;2023-06-19T03:15:28;100280.78;;;17.53;100.00
64521;BME280;50896;46.714;17.322;2023-06-19T03:17:58;100284.13;;;17.35;100.00
64521;BME280;50896;46.714;17.322;2023-06-19T03:20:27;100277.47;;;17.44;100.00
64521;BME280;50896;46.714;17.322;2023-06-19T03:22:59;100282.44;;;17.40;100.00
64521;BME280;50896;46.714;17.322;2023-06-19T03:25:28;100277.69;;;17.42;100.00
64521;BME280;50896;46.714;17.322;2023-06-19T03:28:03;100283.09;;;17.36;100.00
64521;BME280;50896;46.714;17.322;2023-06-19T03:30:34;100270.47;;;17.36;100.00
64521;BME280;50896;46.714;17.322;2023-06-19T03:33:04;100275.19;;;17.41;100.00
64521;BME280;50896;46.714;17.322;2023-06-19T03:35:40;100268.59;;;17.37;100.00
64521;BME280;50896;46.714;17.322;2023-06-19T03:38:18;100272.13;;;17.31;100.00
64521;BME280;50896;46.714;17.322;2023-06-19T03:40:48;100266.75;;;17.37;100.00
64521;BME280;50896;46.714;17.322;2023-06-19T03:43:17;100266.75;;;17.37;100.00
64521;BME280;50896;46.714;17.322;2023-06-19T03:45:48;100264.66;;;17.39;100.00
64521;BME280;50896;46.714;17.322;2023-06-19T03:48:22;100262.16;;;17.51;100.00
64521;BME280;50896;46.714;17.322;2023-06-19T03:50:58;100273.09;;;17.56;100.00
64521;BME280;50896;46.714;17.322;2023-06-19T03:53:26;100279.25;;;17.64;100.00
64521;BME280;50896;46.714;17.322;2023-06-19T03:55:56;100273.63;;;17.79;100.00
64521;BME280;50896;46.714;17.322;2023-06-19T03:58:29;100278.56;;;17.88;100.00
64521;BME280;50896;46.714;17.322;2023-06-19T04:01:04;100288.88;;;17.98;100.00
64521;BME280;50896;46.714;17.322;2023-06-19T04:03:33;100295.03;;;18.12;100.00
64521;BME280;50896;46.714;17.322;2023-06-19T04:06:10;100288.81;;;18.18;100.00
64521;BME280;50896;46.714;17.322;2023-06-19T04:08:39;100290.06;;;18.16;100.00
64521;BME280;50896;46.714;17.322;2023-06-19T04:11:13;100289.81;;;18.24;100.00
64521;BME280;50896;46.714;17.322;2023-06-19T04:13:46;100288.66;;;18.38;100.00
64521;BME280;50896;46.714;17.322;2023-06-19T04:16:16;100292.75;;;18.48;100.00
64521;BME280;50896;46.714;17.322;2023-06-19T04:18:48;100296.13;;;18.68;100.00
64521;BME280;50896;46.714;17.322;2023-06-19T04:21:28;100296.25;;;18.80;100.00
64521;BME280;50896;46.714;17.322;2023-06-19T04:23:56;100289.34;;;18.91;100.00
64521;BME280;50896;46.714;17.322;2023-06-19T04:26:26;100287.78;;;19.02;100.00
64521;BME280;50896;46.714;17.322;2023-06-19T04:28:54;100283.78;;;19.11;100.00
64521;BME280;50896;46.714;17.322;2023-06-19T04:31:23;100285.38;;;19.19;100.00
64521;BME280;50896;46.714;17.322;2023-06-19T04:33:53;100288.81;;;19.26;100.00
64521;BME280;50896;46.714;17.322;2023-06-19T04:36:27;100288.66;;;19.39;100.00
64521;BME280;50896;46.714;17.322;2023-06-19T04:38:54;100287.91;;;19.51;100.00
64521;BME280;50896;46.714;17.322;2023-06-19T04:41:27;100292.38;;;19.63;100.00
64521;BME280;50896;46.714;17.322;2023-06-19T04:44:04;100297.06;;;19.68;100.00
64521;BME280;50896;46.714;17.322;2023-06-19T04:46:35;100290.94;;;19.79;100.00
64521;BME280;50896;46.714;17.322;2023-06-19T04:49:19;100291.38;;;19.95;100.00
64521;BME280;50896;46.714;17.322;2023-06-19T04:51:57;100292.16;;;20.14;100.00
64521;BME280;50896;46.714;17.322;2023-06-19T04:54:38;100290.13;;;20.28;100.00
64521;BME280;50896;46.714;17.322;2023-06-19T04:57:14;100294.25;;;20.42;100.00
64521;BME280;50896;46.714;17.322;2023-06-19T04:59:50;100307.19;;;20.52;100.00
64521;BME280;50896;46.714;17.322;2023-06-19T05:02:26;100310.19;;;20.62;100.00
64521;BME280;50896;46.714;17.322;2023-06-19T05:04:53;100306.63;;;20.62;96.11
64521;BME280;50896;46.714;17.322;2023-06-19T05:07:27;100301.41;;;20.79;95.04
64521;BME280;50896;46.714;17.322;2023-06-19T05:10:00;100313.28;;;20.90;89.02
64521;BME280;50896;46.714;17.322;2023-06-19T05:12:31;100315.19;;;21.01;88.65
64521;BME280;50896;46.714;17.322;2023-06-19T05:15:05;100317.66;;;21.14;88.58
64521;BME280;50896;46.714;17.322;2023-06-19T05:17:37;100310.81;;;21.24;83.44
64521;BME280;50896;46.714;17.322;2023-06-19T05:20:28;100315.63;;;21.33;79.96
64521;BME280;50896;46.714;17.322;2023-06-19T05:22:59;100323.63;;;21.40;76.74
64521;BME280;50896;46.714;17.322;2023-06-19T05:25:28;100328.13;;;21.46;75.32
64521;BME280;50896;46.714;17.322;2023-06-19T05:28:00;100328.34;;;21.57;74.83
64521;BME280;50896;46.714;17.322;2023-06-19T05:30:34;100329.91;;;21.64;75.30
64521;BME280;50896;46.714;17.322;2023-06-19T05:33:09;100331.75;;;21.76;74.43
64521;BME280;50896;46.714;17.322;2023-06-19T05:35:36;100333.38;;;21.77;74.98
64521;BME280;50896;46.714;17.322;2023-06-19T05:38:12;100326.41;;;21.81;71.86
64521;BME280;50896;46.714;17.322;2023-06-19T05:40:46;100334.31;;;21.82;72.42
64521;BME280;50896;46.714;17.322;2023-06-19T05:43:16;100328.06;;;21.82;73.68
64521;BME280;50896;46.714;17.322;2023-06-19T05:45:56;100324.50;;;21.93;72.20
64521;BME280;50896;46.714;17.322;2023-06-19T05:48:22;100328.75;;;22.01;73.00
64521;BME280;50896;46.714;17.322;2023-06-19T05:50:59;100325.53;;;22.04;71.51
64521;BME280;50896;46.714;17.322;2023-06-19T05:53:31;100331.44;;;22.01;70.70
64521;BME280;50896;46.714;17.322;2023-06-19T05:56:06;100331.56;;;22.06;71.27
64521;BME280;50896;46.714;17.322;2023-06-19T05:58:41;100338.22;;;22.15;68.07
64521;BME280;50896;46.714;17.322;2023-06-19T06:01:15;100324.13;;;22.01;69.00
64521;BME280;50896;46.714;17.322;2023-06-19T06:03:48;100331.34;;;21.96;70.37
64521;BME280;50896;46.714;17.322;2023-06-19T06:06:24;100338.25;;;22.04;70.30
64521;BME280;50896;46.714;17.322;2023-06-19T06:09:11;100332.00;;;22.15;70.18
64521;BME280;50896;46.714;17.322;2023-06-19T06:11:49;100331.59;;;22.23;66.33
64521;BME280;50896;46.714;17.322;2023-06-19T06:14:33;100343.09;;;22.30;65.88
64521;BME280;50896;46.714;17.322;2023-06-19T06:17:11;100341.59;;;22.23;67.55
64521;BME280;50896;46.714;17.322;2023-06-19T06:19:48;100341.94;;;22.26;68.68
64521;BME280;50896;46.714;17.322;2023-06-19T06:22:24;100342.41;;;22.35;66.72
64521;BME280;50896;46.714;17.322;2023-06-19T06:25:16;100344.16;;;22.41;65.85
64521;BME280;50896;46.714;17.322;2023-06-19T06:27:54;100348.53;;;22.59;65.07
64521;BME280;50896;46.714;17.322;2023-06-19T06:30:36;100345.41;;;22.67;65.23
64521;BME280;50896;46.714;17.322;2023-06-19T06:33:10;100352.03;;;22.89;62.19
64521;BME280;50896;46.714;17.322;2023-06-19T06:35:46;100346.59;;;22.89;62.42
64521;BME280;50896;46.714;17.322;2023-06-19T06:38:21;100347.56;;;22.99;62.75
64521;BME280;50896;46.714;17.322;2023-06-19T06:40:51;100351.44;;;23.03;62.77
64521;BME280;50896;46.714;17.322;2023-06-19T06:43:50;100350.72;;;23.08;62.00
64521;BME280;50896;46.714;17.322;2023-06-19T06:46:21;100353.75;;;22.95;75.88
64521;BME280;50896;46.714;17.322;2023-06-19T06:48:56;100349.13;;;22.78;78.22
64521;BME280;50896;46.714;17.322;2023-06-19T06:51:25;100355.19;;;22.85;78.90
64521;BME280;50896;46.714;17.322;2023-06-19T06:53:54;100350.69;;;22.91;79.00
64521;BME280;50896;46.714;17.322;2023-06-19T06:56:24;100354.41;;;23.02;79.93
64521;BME280;50896;46.714;17.322;2023-06-19T06:58:56;100354.09;;;22.98;80.25
64521;BME280;50896;46.714;17.322;2023-06-19T07:01:50;100347.72;;;22.76;79.70
64521;BME280;50896;46.714;17.322;2023-06-19T07:04:40;100350.88;;;22.84;80.43
64521;BME280;50896;46.714;17.322;2023-06-19T07:07:16;100351.78;;;22.90;80.97
64521;BME280;50896;46.714;17.322;2023-06-19T07:09:57;100361.34;;;22.64;81.48
64521;BME280;50896;46.714;17.322;2023-06-19T07:12:47;100359.81;;;22.68;83.08
64521;BME280;50896;46.714;17.322;2023-06-19T07:15:24;100364.75;;;22.88;83.02
64521;BME280;50896;46.714;17.322;2023-06-19T07:17:57;100353.84;;;23.00;81.64
64521;BME280;50896;46.714;17.322;2023-06-19T07:20:50;100354.66;;;22.83;79.69
64521;BME280;50896;46.714;17.322;2023-06-19T07:23:34;100362.63;;;22.90;80.01
64521;BME280;50896;46.714;17.322;2023-06-19T07:26:11;100356.34;;;22.90;78.84
64521;BME280;50896;46.714;17.322;2023-06-19T07:28:56;100344.47;;;22.91;77.78
64521;BME280;50896;46.714;17.322;2023-06-19T07:31:32;100348.81;;;22.92;79.13
64521;BME280;50896;46.714;17.322;2023-06-19T07:34:14;100342.75;;;23.01;78.79
64521;BME280;50896;46.714;17.322;2023-06-19T07:37:07;100346.00;;;22.86;77.49
64521;BME280;50896;46.714;17.322;2023-06-19T07:39:37;100339.13;;;22.96;77.75
64521;BME280;50896;46.714;17.322;2023-06-19T07:42:08;100340.53;;;22.98;76.22
64521;BME280;50896;46.714;17.322;2023-06-19T07:44:42;100343.31;;;23.03;77.52
64521;BME280;50896;46.714;17.322;2023-06-19T07:47:31;100331.34;;;23.16;77.13
64521;BME280;50896;46.714;17.322;2023-06-19T07:50:02;100342.25;;;23.21;75.74
64521;BME280;50896;46.714;17.322;2023-06-19T07:52:42;100340.78;;;23.31;75.46
64521;BME280;50896;46.714;17.322;2023-06-19T07:55:13;100337.00;;;23.32;77.77
64521;BME280;50896;46.714;17.322;2023-06-19T07:57:56;100333.16;;;23.28;79.05
64521;BME280;50896;46.714;17.322;2023-06-19T08:00:27;100333.88;;;23.23;77.05
64521;BME280;50896;46.714;17.322;2023-06-19T08:03:11;100332.38;;;23.32;77.72
64521;BME280;50896;46.714;17.322;2023-06-19T08:05:39;100325.34;;;23.14;75.35
64521;BME280;50896;46.714;17.322;2023-06-19T08:08:25;100338.47;;;23.06;77.45
64521;BME280;50896;46.714;17.322;2023-06-19T08:11:04;100335.19;;;23.20;77.67
64521;BME280;50896;46.714;17.322;2023-06-19T08:13:58;100334.88;;;23.17;76.84
64521;BME280;50896;46.714;17.322;2023-06-19T08:17:10;100337.84;;;23.15;78.22
64521;BME280;50896;46.714;17.322;2023-06-19T08:19:51;100334.06;;;23.16;79.15
64521;BME280;50896;46.714;17.322;2023-06-19T08:23:26;100331.06;;;23.35;77.52
64521;BME280;50896;46.714;17.322;2023-06-19T08:26:12;100326.91;;;23.49;74.20
64521;BME280;50896;46.714;17.322;2023-06-19T08:28:51;100321.91;;;23.41;76.21
64521;BME280;50896;46.714;17.322;2023-06-19T08:31:31;100319.53;;;23.45;74.64
64521;BME280;50896;46.714;17.322;2023-06-19T08:34:14;100334.34;;;23.37;75.58
64521;BME280;50896;46.714;17.322;2023-06-19T08:36:48;100331.22;;;23.45;74.56
64521;BME280;50896;46.714;17.322;2023-06-19T08:39:25;100335.44;;;23.36;76.61
64521;BME280;50896;46.714;17.322;2023-06-19T08:42:18;100329.56;;;23.44;75.58
64521;BME280;50896;46.714;17.322;2023-06-19T08:44:52;100325.91;;;23.33;74.55
64521;BME280;50896;46.714;17.322;2023-06-19T08:47:49;100323.88;;;23.24;75.56
64521;BME280;50896;46.714;17.322;2023-06-19T08:50:37;100328.28;;;23.30;75.74
64521;BME280;50896;46.714;17.322;2023-06-19T08:53:18;100325.78;;;23.45;78.17
64521;BME280;50896;46.714;17.322;2023-06-19T08:55:54;100325.28;;;23.48;77.53
64521;BME280;50896;46.714;17.322;2023-06-19T08:59:13;100327.72;;;23.67;76.59
64521;BME280;50896;46.714;17.322;2023-06-19T09:02:13;100329.28;;;23.63;72.20
64521;BME280;50896;46.714;17.322;2023-06-19T09:08:28;100313.81;;;23.63;75.88
64521;BME280;50896;46.714;17.322;2023-06-19T09:11:18;100322.22;;;23.62;75.57
64521;BME280;50896;46.714;17.322;2023-06-19T09:14:00;100322.75;;;23.64;78.24
64521;BME280;50896;46.714;17.322;2023-06-19T09:17:03;100321.19;;;23.68;76.66
64521;BME280;50896;46.714;17.322;2023-06-19T09:20:09;100327.06;;;23.60;78.23
64521;BME280;50896;46.714;17.322;2023-06-19T09:23:46;100321.78;;;23.70;74.39
64521;BME280;50896;46.714;17.322;2023-06-19T09:26:54;100321.56;;;23.94;73.32
64521;BME280;50896;46.714;17.322;2023-06-19T09:30:24;100311.56;;;23.99;68.11
64521;BME280;50896;46.714;17.322;2023-06-19T09:33:34;100316.78;;;24.28;69.59
64521;BME280;50896;46.714;17.322;2023-06-19T09:59:16;100323.63;;;24.36;64.69
64521;BME280;50896;46.714;17.322;2023-06-19T10:06:59;100327.22;;;24.42;61.86
64521;BME280;50896;46.714;17.322;2023-06-19T10:10:05;100322.84;;;24.40;62.95
64521;BME280;50896;46.714;17.322;2023-06-19T10:12:58;100316.59;;;24.40;67.34
64521;BME280;50896;46.714;17.322;2023-06-19T10:15:29;100319.84;;;24.37;65.26
64521;BME280;50896;46.714;17.322;2023-06-19T10:18:01;100326.81;;;24.28;65.10
64521;BME280;50896;46.714;17.322;2023-06-19T10:20:32;100326.91;;;24.38;64.25
64521;BME280;50896;46.714;17.322;2023-06-19T10:25:36;100323.78;;;24.51;64.46
64521;BME280;50896;46.714;17.322;2023-06-19T10:28:04;100314.16;;;24.66;62.80
64521;BME280;50896;46.714;17.322;2023-06-19T10:30:34;100311.94;;;24.63;63.34
64521;BME280;50896;46.714;17.322;2023-06-19T10:33:02;100313.59;;;24.64;59.96
64521;BME280;50896;46.714;17.322;2023-06-19T10:35:38;100308.75;;;24.71;62.76
64521;BME280;50896;46.714;17.322;2023-06-19T10:38:08;100308.53;;;24.78;61.89
64521;BME280;50896;46.714;17.322;2023-06-19T10:40:38;100317.59;;;24.88;59.33
64521;BME280;50896;46.714;17.322;2023-06-19T10:43:05;100315.63;;;24.79;58.58
64521;BME280;50896;46.714;17.322;2023-06-19T10:45:32;100308.66;;;24.93;59.26
64521;BME280;50896;46.714;17.322;2023-06-19T10:48:03;100313.13;;;25.10;59.31
64521;BME280;50896;46.714;17.322;2023-06-19T10:50:35;100316.16;;;25.18;58.11
64521;BME280;50896;46.714;17.322;2023-06-19T10:53:04;100315.91;;;25.20;59.56
64521;BME280;50896;46.714;17.322;2023-06-19T10:55:32;100313.19;;;25.15;58.47
64521;BME280;50896;46.714;17.322;2023-06-19T10:58:02;100316.16;;;25.18;58.99
64521;BME280;50896;46.714;17.322;2023-06-19T11:00:30;100314.88;;;25.31;58.99
64521;BME280;50896;46.714;17.322;2023-06-19T11:02:58;100318.66;;;25.25;55.02
64521;BME280;50896;46.714;17.322;2023-06-19T11:05:26;100316.78;;;25.31;55.55
64521;BME280;50896;46.714;17.322;2023-06-19T11:07:58;100317.16;;;25.39;56.74
64521;BME280;50896;46.714;17.322;2023-06-19T11:10:28;100314.78;;;25.53;60.25
64521;BME280;50896;46.714;17.322;2023-06-19T11:12:59;100323.25;;;25.57;59.05
64521;BME280;50896;46.714;17.322;2023-06-19T11:15:33;100317.44;;;25.43;58.21
64521;BME280;50896;46.714;17.322;2023-06-19T11:21:10;100310.81;;;25.87;55.43
64521;BME280;50896;46.714;17.322;2023-06-19T11:28:04;100302.97;;;26.01;52.99
64521;BME280;50896;46.714;17.322;2023-06-19T11:31:07;100303.59;;;26.18;54.60
64521;BME280;50896;46.714;17.322;2023-06-19T11:33:59;100297.88;;;26.20;53.35
64521;BME280;50896;46.714;17.322;2023-06-19T11:36:44;100297.06;;;26.19;51.77
64521;BME280;50896;46.714;17.322;2023-06-19T11:44:12;100309.69;;;26.77;47.54
64521;BME280;50896;46.714;17.322;2023-06-19T11:47:19;100303.94;;;26.89;48.15
64521;BME280;50896;46.714;17.322;2023-06-19T11:50:15;100306.09;;;26.97;47.65
64521;BME280;50896;46.714;17.322;2023-06-19T11:53:02;100303.94;;;26.99;47.80
64521;BME280;50896;46.714;17.322;2023-06-19T11:55:43;100299.28;;;27.05;46.99
64521;BME280;50896;46.714;17.322;2023-06-19T11:58:43;100302.53;;;27.22;46.58
64521;BME280;50896;46.714;17.322;2023-06-19T12:13:09;100288.75;;;28.24;45.16
64521;BME280;50896;46.714;17.322;2023-06-19T12:15:36;100291.47;;;28.29;46.47
64521;BME280;50896;46.714;17.322;2023-06-19T12:18:06;100294.94;;;28.40;45.77
64521;BME280;50896;46.714;17.322;2023-06-19T12:20:34;100292.75;;;28.37;45.77
64521;BME280;50896;46.714;17.322;2023-06-19T12:23:01;100288.50;;;28.55;45.35
64521;BME280;50896;46.714;17.322;2023-06-19T12:25:28;100292.03;;;28.66;44.10
64521;BME280;50896;46.714;17.322;2023-06-19T12:27:56;100287.44;;;28.90;43.91
64521;BME280;50896;46.714;17.322;2023-06-19T12:30:23;100285.28;;;28.87;43.54
64521;BME280;50896;46.714;17.322;2023-06-19T12:32:50;100273.41;;;29.26;43.15
64521;BME280;50896;46.714;17.322;2023-06-19T12:35:17;100273.63;;;29.54;41.78
64521;BME280;50896;46.714;17.322;2023-06-19T12:37:45;100265.47;;;29.92;40.56
64521;BME280;50896;46.714;17.322;2023-06-19T12:40:12;100270.94;;;30.49;39.50
64521;BME280;50896;46.714;17.322;2023-06-19T12:42:40;100263.56;;;31.39;38.21
64521;BME280;50896;46.714;17.322;2023-06-19T12:45:07;100261.25;;;31.96;37.61
64521;BME280;50896;46.714;17.322;2023-06-19T12:47:34;100260.31;;;33.23;35.44
64521;BME280;50896;46.714;17.322;2023-06-19T12:50:02;100253.81;;;35.03;32.75
64521;BME280;50896;46.714;17.322;2023-06-19T12:52:29;100261.28;;;36.80;30.18
64521;BME280;50896;46.714;17.322;2023-06-19T12:54:57;100250.91;;;38.33;27.12
64521;BME280;50896;46.714;17.322;2023-06-19T12:57:26;100256.78;;;35.79;31.65
64521;BME280;50896;46.714;17.322;2023-06-19T12:59:53;100261.94;;;34.34;35.35
64521;BME280;50896;46.714;17.322;2023-06-19T13:02:20;100257.69;;;32.64;38.98
64521;BME280;50896;46.714;17.322;2023-06-19T13:04:47;100250.94;;;31.51;41.27
64521;BME280;50896;46.714;17.322;2023-06-19T13:07:14;100248.00;;;30.59;42.83
64521;BME280;50896;46.714;17.322;2023-06-19T13:09:42;100252.47;;;29.79;44.67
64521;BME280;50896;46.714;17.322;2023-06-19T13:12:09;100251.72;;;29.30;47.38
64521;BME280;50896;46.714;17.322;2023-06-19T13:14:36;100251.78;;;28.95;47.86
64521;BME280;50896;46.714;17.322;2023-06-19T13:17:04;100245.34;;;28.86;46.32
64521;BME280;50896;46.714;17.322;2023-06-19T13:19:32;100245.94;;;29.07;45.80
64521;BME280;50896;46.714;17.322;2023-06-19T13:21:59;100256.66;;;28.74;45.37
64521;BME280;50896;46.714;17.322;2023-06-19T13:24:26;100249.66;;;28.58;46.46
64521;BME280;50896;46.714;17.322;2023-06-19T13:26:54;100251.25;;;28.29;45.34
64521;BME280;50896;46.714;17.322;2023-06-19T13:29:21;100249.31;;;28.01;48.18
64521;BME280;50896;46.714;17.322;2023-06-19T13:31:48;100252.94;;;27.75;48.20
64521;BME280;50896;46.714;17.322;2023-06-19T13:34:15;100250.28;;;27.65;48.19
64521;BME280;50896;46.714;17.322;2023-06-19T13:36:42;100256.94;;;27.43;49.01
64521;BME280;50896;46.714;17.322;2023-06-19T13:39:10;100252.06;;;27.35;49.68
64521;BME280;50896;46.714;17.322;2023-06-19T13:41:38;100255.03;;;27.23;50.47
64521;BME280;50896;46.714;17.322;2023-06-19T13:44:06;100245.53;;;27.16;49.37
64521;BME280;50896;46.714;17.322;2023-06-19T13:46:33;100254.00;;;27.04;48.00
64521;BME280;50896;46.714;17.322;2023-06-19T13:49:01;100253.19;;;26.93;47.66
64521;BME280;50896;46.714;17.322;2023-06-19T13:51:28;100251.03;;;26.85;47.56
64521;BME280;50896;46.714;17.322;2023-06-19T13:53:55;100254.03;;;26.83;48.21
64521;BME280;50896;46.714;17.322;2023-06-19T13:56:22;100255.41;;;26.86;48.50
64521;BME280;50896;46.714;17.322;2023-06-19T13:58:50;100251.03;;;26.85;48.81
64521;BME280;50896;46.714;17.322;2023-06-19T14:01:17;100245.88;;;26.78;46.05
64521;BME280;50896;46.714;17.322;2023-06-19T14:03:44;100251.31;;;26.83;47.09
64521;BME280;50896;46.714;17.322;2023-06-19T14:06:11;100248.88;;;26.87;46.70
64521;BME280;50896;46.714;17.322;2023-06-19T14:08:39;100246.94;;;26.87;46.65
64521;BME280;50896;46.714;17.322;2023-06-19T14:11:06;100251.59;;;26.92;47.10
64521;BME280;50896;46.714;17.322;2023-06-19T14:13:33;100252.94;;;26.89;47.78
64521;BME280;50896;46.714;17.322;2023-06-19T14:16:00;100255.66;;;26.94;48.12
64521;BME280;50896;46.714;17.322;2023-06-19T14:18:26;100256.22;;;26.97;47.01
64521;BME280;50896;46.714;17.322;2023-06-19T14:20:53;100253.47;;;26.97;47.28